Date,TemperatureHighF,TemperatureAvgF,TemperatureLowF,DewpointHighF,DewpointAvgF,DewpointLowF,HumidityHigh,HumidityAvg,HumidityLow,PressureMaxIn,PressureMinIn,WindSpeedMaxMPH,WindSpeedAvgMPH,GustSpeedMaxMPH,PrecipitationSumIn
2014-1-1,55.2,38.2,28.6,27.6,23.8,19.7,79,57,32,30.43,30.25,0,0,0,0.00
2014-1-2,42.3,36.8,29.8,37.7,32.3,20.9,100,84,66,30.00,29.69,0,0,0,0.13
2014-1-3,31.3,19.8,14.9,19.9,5.4,1.2,70,53,29,30.48,29.81,0,0,0,0.01
2014-1-4,43.3,24.2,12.4,38.9,11.4,4.1,99,59,30,30.50,29.67,0,0,0,0.00
2014-1-5,39.7,34.5,29.7,39.5,31.4,19.2,100,89,63,29.81,29.28,0,0,0,0.19
2014-1-6,45.3,29.0,3.4,44.9,18.7,-11.0,99,66,43,29.69,29.16,0,0,2,0.05
2014-1-7,24.6,8.9,0.0,1.4,-7.6,-13.4,63,47,24,29.96,29.68,0,0,1,0.00
2014-1-8,44.2,25.8,10.4,15.2,7.0,-1.2,62,46,23,30.09,29.95,0,0,1,0.00
2014-1-9,55.4,36.8,28.6,22.3,18.5,14.9,61,48,24,30.11,29.99,0,0,0,0.00
2014-1-10,39.0,36.1,33.1,38.8,32.6,20.3,100,89,49,30.03,29.67,0,0,0,0.60
2014-1-11,52.7,46.0,36.9,52.4,44.6,36.1,100,95,64,29.67,29.10,0,0,1,0.53
2014-1-12,60.8,45.8,40.1,36.0,31.5,27.6,70,58,33,29.69,29.25,0,0,1,0.00
2014-1-13,56.8,43.2,29.5,39.9,34.4,26.7,93,72,51,29.68,29.47,0,0,0,0.00
2014-1-14,57.9,45.1,38.3,44.4,39.0,31.1,100,81,52,29.51,29.31,0,0,0,0.21
2014-1-15,44.6,43.6,42.4,34.7,34.2,33.5,71,69,68,29.50,29.48,0,0,0,0.00
2014-1-16,47.5,31.1,21.9,23.1,17.0,14.1,76,57,28,29.59,29.43,0,0,0,0.00
2014-1-17,49.1,36.2,25.7,28.4,22.7,17.8,76,59,43,29.50,29.35,0,0,0,0.00
2014-1-18,36.1,26.8,23.4,17.3,12.4,8.0,68,55,36,29.55,29.48,0,0,0,0.00
2014-1-19,44.2,34.6,23.9,29.7,23.1,14.8,72,63,51,29.48,29.40,0,0,2,0.00
2014-1-20,63.7,45.5,37.6,29.6,25.3,19.5,65,47,19,29.41,29.28,0,0,2,0.00
2014-1-21,41.7,32.6,18.3,33.8,26.8,10.4,100,80,54,29.41,29.16,0,0,1,0.01
2014-1-22,28.6,16.2,10.9,10.1,0.9,-8.6,70,52,25,29.59,29.40,0,0,0,0.00
2014-1-23,29.8,19.3,10.4,11.4,5.6,-3.1,67,55,34,29.97,29.58,0,0,1,0.00
2014-1-24,20.1,11.4,4.5,0.5,-3.1,-6.0,62,52,41,30.06,29.92,0,0,0,0.00
2014-1-25,32.2,19.1,14.5,19.9,2.9,-2.8,61,49,38,29.61,29.14,0,0,1,0.00
2014-1-26,49.1,33.1,18.5,18.4,7.7,-1.4,59,36,17,30.23,30.08,0,0,1,0.00
2014-1-27,53.6,40.1,18.3,34.7,21.1,-5.0,61,47,23,30.50,30.09,0,0,1,0.00
2014-1-28,18.9,14.5,11.3,12.2,2.7,-7.5,92,62,37,30.66,30.49,0,0,1,0.00
2014-1-29,29.5,15.7,7.2,12.0,-2.6,-11.0,92,47,18,30.64,30.47,0,0,1,0.00
2014-1-30,43.2,20.1,7.2,5.4,0.5,-3.6,65,44,16,30.71,30.51,0,0,0,0.00
2014-1-31,60.6,36.0,20.5,16.2,8.8,2.4,59,37,10,30.53,30.41,0,0,1,0.00
2014-2-1,64.8,43.7,28.0,24.9,19.2,13.0,65,40,15,30.58,30.38,0,0,0,0.00
2014-2-2,67.6,54.2,42.3,50.2,39.5,23.8,84,59,39,30.39,30.31,0,0,1,0.00
2014-2-3,54.3,43.8,36.5,49.9,41.9,34.0,100,93,80,30.60,30.22,0,0,1,1.55
2014-2-4,38.1,34.7,32.0,35.9,32.6,30.0,100,92,80,30.74,30.44,0,0,1,0.17
2014-2-5,62.8,38.5,31.1,50.7,33.5,21.8,100,84,47,30.44,30.07,0,0,1,0.04
2014-2-6,41.7,31.8,27.1,22.1,19.5,16.2,70,60,43,30.64,30.44,0,0,1,0.00
2014-2-7,47.7,31.4,25.3,25.0,21.3,19.3,78,67,38,30.66,30.56,0,0,0,0.00
2014-2-8,44.2,34.1,29.5,28.2,24.2,20.4,74,67,51,30.61,30.45,0,0,0,0.00
2014-2-9,45.7,39.0,34.5,36.6,30.5,25.3,81,71,64,30.48,30.29,0,0,1,0.00
2014-2-10,38.5,32.9,26.6,27.5,20.0,13.1,72,59,43,30.58,30.36,0,0,0,0.00
2014-2-11,49.5,28.6,20.1,17.8,14.0,11.4,73,56,25,30.70,30.56,0,0,0,0.00
2014-2-12,26.1,21.4,18.9,19.6,13.4,8.2,100,73,52,30.73,30.28,0,0,0,0.00
2014-2-13,36.9,28.0,19.9,35.0,26.1,19.7,100,93,64,30.28,29.79,0,0,1,0.05
2014-2-14,60.4,43.0,31.5,27.4,23.1,15.4,71,48,18,30.04,29.92,0,0,1,0.05
2014-2-15,42.8,32.9,23.0,36.7,23.6,14.2,100,69,51,30.36,29.90,0,0,1,0.09
2014-2-16,43.5,31.9,22.1,29.6,21.2,14.0,73,65,56,30.49,30.29,0,0,1,0.00
2014-2-17,46.2,32.8,24.1,24.2,20.6,16.8,76,61,38,30.68,30.47,0,0,0,0.00
2014-2-18,66.7,44.7,28.6,29.3,22.2,12.2,85,48,13,30.48,30.37,0,0,0,0.00
2014-2-19,71.6,51.3,36.0,48.6,34.2,24.0,83,55,33,30.43,30.15,1,0,2,0.00
2014-2-20,51.4,46.2,36.9,35.3,30.5,26.4,75,55,39,30.56,30.26,0,0,0,0.00
2014-2-21,67.1,52.0,40.1,56.6,36.7,9.7,100,63,15,30.35,30.08,0,0,1,0.45
2014-2-22,68.2,46.8,38.5,24.6,20.0,7.8,49,36,10,30.48,30.34,0,0,0,0.00
2014-2-23,76.8,55.4,43.2,34.1,25.0,15.1,60,33,10,30.39,30.19,0,0,1,0.00
2014-2-24,54.5,41.6,32.4,35.4,15.9,-3.9,71,40,10,30.45,30.27,0,0,1,0.00
2014-2-25,49.3,36.5,31.5,20.1,13.8,6.8,61,40,27,30.42,30.27,0,0,0,0.00
2014-2-26,41.7,32.6,23.4,22.4,15.9,7.5,66,51,26,30.28,30.13,0,0,1,0.00
2014-2-27,49.5,31.1,20.1,11.1,4.2,-7.4,67,36,10,30.33,30.02,0,0,1,0.00
2014-2-28,44.2,26.7,17.4,11.0,6.8,1.8,62,44,24,30.60,30.33,0,0,0,0.00
2014-3-1,44.1,27.6,18.0,21.7,16.7,10.5,80,64,38,30.10,29.90,0,0,0,0.02
2014-3-2,71.6,52.2,30.6,46.8,29.4,16.6,71,43,20,29.95,29.60,1,0,2,0.00
2014-3-3,52.7,46.6,36.9,48.1,32.7,26.4,85,60,39,30.01,29.63,0,0,1,0.00
2014-3-4,67.1,51.4,39.9,56.6,32.7,9.6,100,55,15,29.84,29.52,0,0,1,0.45
2014-3-5,71.8,49.6,34.3,26.1,18.4,6.3,55,33,10,30.05,29.82,0,0,0,1.00
2014-3-6,39.7,31.6,28.0,25.5,19.0,14.3,86,60,39,30.18,29.98,0,0,0,0.00
2014-3-7,50.7,34.7,27.1,37.3,30.7,25.3,100,86,57,29.97,29.70,0,0,1,0.06
2014-3-8,76.3,52.5,32.4,44.2,32.8,19.6,96,55,13,29.79,29.68,0,0,1,0.00
2014-3-9,53.4,51.6,49.3,38.6,35.6,29.6,63,55,42,29.79,29.71,0,0,1,0.00